Time;durP1;ratioP1;P1;durP2;ratioP2;P2;SDS_P1;SDS_P2;PMS_P1;PMS_P2;Temp;Humidity;BMP_temperature;BMP_pressure;BME280_temperature;BME280_humidity;BME280_pressure;Samples;Min_cycle;Max_cycle;Signal;HPM_P1;HPM_P2
2022/03/03 00:00:44;;;;;;;;;76.50;60.00;;;;;;;;5068981;27;51109;-55
2022/03/03 00:03:09;;;;;;;;;80.50;64.75;;;;;;;;5073834;27;51348;-57
2022/03/03 00:05:34;;;;;;;;;75.75;60.25;;;;;;;;5073707;27;50960;-57
2022/03/03 00:07:59;;;;;;;;;71.75;56.75;;;;;;;;5073028;28;51143;-56
2022/03/03 00:10:25;;;;;;;;;72.00;57.50;;;;;;;;5074339;28;51197;-58
2022/03/03 00:12:50;;;;;;;;;72.75;57.00;;;;;;;;5066285;27;52052;-58
2022/03/03 00:15:15;;;;;;;;;71.75;56.75;;;;;;;;5070981;27;51335;-58
2022/03/03 00:17:40;;;;;;;;;71.75;57.50;;;;;;;;5067958;27;51737;-56
2022/03/03 00:20:06;;;;;;;;;67.00;56.00;;;;;;;;5074135;28;50906;-57
2022/03/03 00:22:32;;;;;;;;;70.00;57.75;;;;;;;;5069970;27;51882;-56
2022/03/03 00:24:57;;;;;;;;;72.50;57.75;;;;;;;;5073109;28;51183;-58
2022/03/03 00:27:22;;;;;;;;;73.75;59.00;;;;;;;;5073038;27;51091;-56
2022/03/03 00:29:47;;;;;;;;;72.50;58.25;;;;;;;;5072321;28;51116;-56
2022/03/03 00:32:13;;;;;;;;;73.00;59.50;;;;;;;;5067647;27;51247;-58
2022/03/03 00:34:38;;;;;;;;;79.50;61.00;;;;;;;;5091396;27;51180;-56
2022/03/03 00:37:03;;;;;;;;;71.75;58.00;;;;;;;;5056554;27;51124;-57
2022/03/03 00:39:29;;;;;;;;;71.25;56.50;;;;;;;;5054741;27;51100;-57
2022/03/03 00:41:54;;;;;;;;;73.75;58.00;;;;;;;;5055063;27;51310;-57
2022/03/03 00:44:19;;;;;;;;;73.50;60.00;;;;;;;;5055598;27;51090;-58
2022/03/03 00:46:44;;;;;;;;;72.00;58.25;;;;;;;;5051932;27;51461;-58
2022/03/03 00:49:09;;;;;;;;;72.50;58.50;;;;;;;;5056741;27;52100;-58
2022/03/03 00:51:35;;;;;;;;;75.75;61.00;;;;;;;;5051200;27;52188;-57
2022/03/03 00:54:01;;;;;;;;;77.25;61.50;;;;;;;;5057908;27;51267;-58
2022/03/03 00:56:26;;;;;;;;;74.00;59.50;;;;;;;;5051293;27;51842;-56
2022/03/03 00:58:51;;;;;;;;;77.75;61.25;;;;;;;;5058642;27;51109;-56
2022/03/03 01:01:16;;;;;;;;;76.50;59.75;;;;;;;;5053343;27;53200;-56
2022/03/03 01:03:42;;;;;;;;;74.25;58.75;;;;;;;;5055275;27;51201;-57
2022/03/03 01:06:08;;;;;;;;;78.50;61.50;;;;;;;;5052293;27;51321;-58
2022/03/03 01:08:34;;;;;;;;;75.00;60.25;;;;;;;;5053826;27;53152;-57
2022/03/03 01:10:59;;;;;;;;;75.50;60.00;;;;;;;;5053830;27;52235;-56
2022/03/03 01:13:24;;;;;;;;;75.00;59.75;;;;;;;;5054255;27;53255;-57
2022/03/03 01:15:50;;;;;;;;;77.00;61.00;;;;;;;;5056530;27;51134;-57
2022/03/03 01:18:15;;;;;;;;;71.50;57.50;;;;;;;;5054266;27;51347;-58
2022/03/03 01:20:40;;;;;;;;;76.25;60.00;;;;;;;;5053992;27;51696;-58
2022/03/03 01:23:06;;;;;;;;;75.75;60.50;;;;;;;;5054656;27;53340;-58
2022/03/03 01:25:31;;;;;;;;;78.00;61.25;;;;;;;;5052996;27;53745;-58
2022/03/03 01:27:56;;;;;;;;;76.25;59.50;;;;;;;;5058132;27;51277;-58
2022/03/03 01:30:22;;;;;;;;;71.50;57.75;;;;;;;;5053412;27;51663;-58
2022/03/03 01:32:47;;;;;;;;;76.00;61.25;;;;;;;;5054705;27;51235;-58
2022/03/03 01:35:12;;;;;;;;;76.50;61.50;;;;;;;;5049468;27;51109;-57
2022/03/03 01:37:37;;;;;;;;;72.25;59.25;;;;;;;;5054025;27;51320;-57
2022/03/03 01:40:04;;;;;;;;;78.25;61.00;;;;;;;;5054353;27;51735;-58
2022/03/03 01:42:29;;;;;;;;;72.50;58.75;;;;;;;;5050465;27;51143;-58
2022/03/03 01:44:54;;;;;;;;;76.25;59.25;;;;;;;;5057102;27;51273;-59
2022/03/03 01:47:21;;;;;;;;;71.25;58.00;;;;;;;;5053744;27;51109;-57
2022/03/03 01:49:46;;;;;;;;;77.00;60.75;;;;;;;;5052594;27;52228;-58
2022/03/03 01:52:12;;;;;;;;;74.50;60.25;;;;;;;;5052684;27;51142;-57
2022/03/03 01:54:37;;;;;;;;;74.50;58.25;;;;;;;;5051369;27;51132;-58
2022/03/03 01:57:02;;;;;;;;;69.00;55.25;;;;;;;;5053625;27;54347;-57
2022/03/03 01:59:27;;;;;;;;;75.25;59.00;;;;;;;;5056715;27;51988;-57
2022/03/03 02:01:53;;;;;;;;;72.75;58.50;;;;;;;;5053021;27;51091;-57
2022/03/03 02:04:18;;;;;;;;;68.00;55.00;;;;;;;;5053086;27;51250;-58
2022/03/03 02:06:44;;;;;;;;;75.50;58.00;;;;;;;;5052383;27;51334;-57
2022/03/03 02:09:09;;;;;;;;;69.75;55.75;;;;;;;;5054900;27;53151;-57
2022/03/03 02:11:35;;;;;;;;;70.75;58.00;;;;;;;;5048891;27;51135;-58
2022/03/03 02:14:03;;;;;;;;;73.00;58.75;;;;;;;;5053885;27;51182;-60
2022/03/03 02:16:30;;;;;;;;;73.75;57.75;;;;;;;;5053697;27;51317;-58
2022/03/03 02:18:55;;;;;;;;;70.75;57.25;;;;;;;;5053857;27;53321;-58
2022/03/03 02:21:21;;;;;;;;;71.25;56.75;;;;;;;;5051389;27;51338;-57
2022/03/03 02:23:46;;;;;;;;;65.25;53.25;;;;;;;;5055994;27;54411;-57
2022/03/03 02:26:21;;;;;;;;;66.00;53.25;;;;;;;;5052648;27;52726;-58
2022/03/03 02:28:48;;;;;;;;;68.25;53.00;;;;;;;;5053802;27;51167;-57
2022/03/03 02:31:13;;;;;;;;;67.00;55.25;;;;;;;;5054541;27;51416;-57
2022/03/03 02:33:38;;;;;;;;;72.75;54.50;;;;;;;;5052704;27;53445;-57
2022/03/03 02:36:33;;;;;;;;;71.75;57.25;;;;;;;;5056482;27;53493;-57
2022/03/03 02:38:59;;;;;;;;;72.25;57.00;;;;;;;;5041089;27;53702;-58
2022/03/03 02:41:25;;;;;;;;;69.75;57.00;;;;;;;;5051568;27;51180;-58
2022/03/03 02:43:52;;;;;;;;;74.25;59.50;;;;;;;;5053255;27;51227;-58
2022/03/03 02:46:17;;;;;;;;;70.50;57.00;;;;;;;;5055022;27;51438;-57
2022/03/03 02:48:42;;;;;;;;;71.25;56.25;;;;;;;;5050382;27;51823;-57
2022/03/03 02:51:08;;;;;;;;;72.75;57.75;;;;;;;;5053529;27;51210;-58
2022/03/03 02:53:34;;;;;;;;;71.50;58.00;;;;;;;;5052833;27;52896;-58
2022/03/03 02:56:00;;;;;;;;;71.50;57.75;;;;;;;;5054795;27;51398;-58
2022/03/03 02:58:25;;;;;;;;;71.75;57.00;;;;;;;;5054025;27;52567;-58
2022/03/03 03:00:50;;;;;;;;;75.25;58.50;;;;;;;;5051878;27;51108;-57
2022/03/03 03:03:16;;;;;;;;;74.75;58.50;;;;;;;;5055279;27;51336;-57
2022/03/03 03:05:42;;;;;;;;;71.25;57.75;;;;;;;;5049105;27;51314;-57
2022/03/03 03:08:07;;;;;;;;;71.75;58.25;;;;;;;;5052121;27;52035;-57
2022/03/03 03:10:33;;;;;;;;;73.50;58.00;;;;;;;;5056425;27;51150;-57
2022/03/03 03:12:58;;;;;;;;;75.25;59.25;;;;;;;;5052583;27;51111;-57
2022/03/03 03:15:23;;;;;;;;;66.50;54.25;;;;;;;;5052447;27;51412;-57
2022/03/03 03:17:49;;;;;;;;;73.00;59.00;;;;;;;;5054954;27;51869;-57
2022/03/03 03:20:14;;;;;;;;;73.50;59.00;;;;;;;;5052670;27;53546;-57
2022/03/03 03:22:39;;;;;;;;;75.50;60.00;;;;;;;;5053138;27;53606;-57
2022/03/03 03:25:07;;;;;;;;;76.00;59.50;;;;;;;;5049979;27;51293;-57
2022/03/03 03:27:33;;;;;;;;;74.50;59.00;;;;;;;;5083296;27;53380;-57
2022/03/03 03:29:58;;;;;;;;;72.00;57.75;;;;;;;;5052926;27;51188;-57
2022/03/03 03:32:23;;;;;;;;;71.50;57.75;;;;;;;;5054787;27;51168;-56
2022/03/03 03:34:49;;;;;;;;;81.25;62.25;;;;;;;;5051718;27;51376;-58
2022/03/03 03:37:14;;;;;;;;;73.50;58.00;;;;;;;;5049549;27;51785;-57
2022/03/03 03:39:39;;;;;;;;;70.75;58.00;;;;;;;;5049807;27;53419;-57
2022/03/03 03:42:04;;;;;;;;;74.50;58.00;;;;;;;;5052294;27;51282;-57
2022/03/03 03:44:30;;;;;;;;;69.00;55.50;;;;;;;;5052780;27;51583;-58
2022/03/03 03:46:55;;;;;;;;;74.25;57.50;;;;;;;;5049468;27;51869;-57
2022/03/03 03:49:20;;;;;;;;;72.75;56.00;;;;;;;;5050637;27;51398;-57
2022/03/03 03:51:45;;;;;;;;;71.00;56.50;;;;;;;;5049238;27;51275;-57
2022/03/03 03:54:11;;;;;;;;;71.00;57.50;;;;;;;;5052519;27;51037;-57
2022/03/03 03:56:36;;;;;;;;;67.50;54.75;;;;;;;;5050981;27;52159;-55
2022/03/03 03:59:01;;;;;;;;;70.00;55.50;;;;;;;;5054212;27;53503;-56
2022/03/03 04:01:27;;;;;;;;;75.25;56.75;;;;;;;;5060111;27;51362;-56
2022/03/03 04:03:52;;;;;;;;;71.50;57.00;;;;;;;;5054171;27;51405;-57
2022/03/03 04:06:18;;;;;;;;;71.00;55.00;;;;;;;;5053878;27;51395;-57
2022/03/03 04:08:43;;;;;;;;;72.75;56.25;;;;;;;;5056120;27;54600;-57
2022/03/03 04:11:08;;;;;;;;;68.75;55.25;;;;;;;;5056163;27;51404;-57
2022/03/03 04:13:33;;;;;;;;;65.50;53.75;;;;;;;;5060035;27;51380;-58
2022/03/03 04:15:58;;;;;;;;;71.00;54.50;;;;;;;;5054682;27;51231;-58
2022/03/03 04:18:24;;;;;;;;;65.75;53.00;;;;;;;;5057850;27;51127;-57
2022/03/03 04:20:49;;;;;;;;;71.00;56.00;;;;;;;;5052620;27;53664;-57
2022/03/03 04:23:17;;;;;;;;;71.25;57.50;;;;;;;;5052653;27;51267;-57
2022/03/03 04:25:42;;;;;;;;;65.00;53.25;;;;;;;;5054784;27;52960;-56
2022/03/03 04:28:07;;;;;;;;;66.00;53.75;;;;;;;;5053490;27;51084;-55
2022/03/03 04:30:34;;;;;;;;;73.00;55.75;;;;;;;;5053675;27;51100;-55
2022/03/03 04:32:59;;;;;;;;;71.50;55.25;;;;;;;;5058869;27;51300;-56
2022/03/03 04:35:25;;;;;;;;;72.50;57.00;;;;;;;;5055298;27;51928;-56
2022/03/03 04:37:50;;;;;;;;;67.00;53.75;;;;;;;;5055990;27;51247;-57
2022/03/03 04:40:15;;;;;;;;;66.75;52.75;;;;;;;;5052385;27;51239;-56
2022/03/03 04:42:40;;;;;;;;;70.00;55.75;;;;;;;;5052079;27;51213;-56
2022/03/03 04:45:06;;;;;;;;;68.00;53.75;;;;;;;;5053628;27;52161;-57
2022/03/03 04:47:32;;;;;;;;;76.50;63.00;;;;;;;;5053723;27;51218;-56
2022/03/03 04:49:57;;;;;;;;;68.00;55.50;;;;;;;;5053992;27;51122;-56
2022/03/03 04:52:22;;;;;;;;;67.00;54.50;;;;;;;;5058324;27;51242;-55
2022/03/03 04:54:48;;;;;;;;;72.75;57.00;;;;;;;;5060554;27;51385;-55
2022/03/03 04:57:13;;;;;;;;;66.25;53.75;;;;;;;;5053602;27;51258;-57
2022/03/03 04:59:39;;;;;;;;;68.25;55.50;;;;;;;;5052388;27;51209;-56
2022/03/03 05:02:04;;;;;;;;;66.00;53.75;;;;;;;;5058171;27;51103;-56
2022/03/03 05:04:29;;;;;;;;;70.50;55.75;;;;;;;;5052839;27;53545;-55
2022/03/03 05:06:54;;;;;;;;;70.75;55.25;;;;;;;;5055854;27;51162;-56
2022/03/03 05:09:20;;;;;;;;;67.50;54.75;;;;;;;;5055467;27;51442;-56
2022/03/03 05:11:45;;;;;;;;;67.00;53.75;;;;;;;;5058831;27;51472;-55
2022/03/03 05:14:10;;;;;;;;;66.25;54.50;;;;;;;;5053338;27;54420;-56
2022/03/03 05:16:35;;;;;;;;;64.00;51.50;;;;;;;;5059501;27;51171;-57
2022/03/03 05:19:01;;;;;;;;;69.50;54.00;;;;;;;;5057410;27;51215;-56
2022/03/03 05:21:26;;;;;;;;;67.25;53.50;;;;;;;;5054648;27;51199;-56
2022/03/03 05:23:52;;;;;;;;;68.00;54.50;;;;;;;;5056161;27;52072;-55
2022/03/03 05:26:18;;;;;;;;;69.50;55.25;;;;;;;;5053219;27;51347;-57
2022/03/03 05:28:43;;;;;;;;;65.75;51.00;;;;;;;;5055018;27;51199;-56
2022/03/03 05:31:08;;;;;;;;;57.75;48.50;;;;;;;;5053726;27;51162;-56
2022/03/03 05:33:34;;;;;;;;;66.00;52.75;;;;;;;;5055261;27;52516;-57
2022/03/03 05:36:03;;;;;;;;;65.00;51.25;;;;;;;;5055599;27;52921;-57
2022/03/03 05:38:30;;;;;;;;;58.00;47.50;;;;;;;;5050566;27;51243;-57
2022/03/03 05:40:55;;;;;;;;;60.25;50.25;;;;;;;;5054953;27;51346;-57
2022/03/03 05:43:21;;;;;;;;;60.75;49.00;;;;;;;;5061764;27;55865;-57
2022/03/03 05:45:47;;;;;;;;;64.25;50.00;;;;;;;;5051938;27;51176;-57
2022/03/03 05:48:15;;;;;;;;;61.25;50.50;;;;;;;;5051990;27;51130;-57
2022/03/03 05:50:40;;;;;;;;;56.00;47.75;;;;;;;;5057394;27;54205;-57
2022/03/03 05:53:06;;;;;;;;;60.75;50.00;;;;;;;;5057105;27;52698;-58
2022/03/03 05:55:32;;;;;;;;;60.25;49.50;;;;;;;;5053365;27;51089;-58
2022/03/03 05:57:59;;;;;;;;;58.25;49.00;;;;;;;;5052709;27;51465;-58
2022/03/03 06:00:26;;;;;;;;;57.00;47.00;;;;;;;;5053918;27;51216;-58
2022/03/03 06:02:52;;;;;;;;;73.00;58.25;;;;;;;;5047895;27;52386;-57
2022/03/03 06:05:19;;;;;;;;;68.50;53.75;;;;;;;;5054237;27;51225;-57
2022/03/03 06:07:45;;;;;;;;;73.50;58.25;;;;;;;;5053629;27;51154;-56
2022/03/03 06:10:11;;;;;;;;;54.50;45.50;;;;;;;;5057081;27;51444;-57
2022/03/03 06:12:40;;;;;;;;;55.75;46.00;;;;;;;;5054289;27;53327;-57
2022/03/03 06:15:06;;;;;;;;;50.00;42.50;;;;;;;;5051027;27;51235;-58
2022/03/03 06:17:31;;;;;;;;;53.75;45.00;;;;;;;;5051263;27;51370;-58
2022/03/03 06:19:58;;;;;;;;;53.50;45.50;;;;;;;;5053969;27;51256;-57
2022/03/03 06:22:23;;;;;;;;;49.50;41.00;;;;;;;;5054437;27;51467;-57
2022/03/03 06:24:49;;;;;;;;;55.75;44.50;;;;;;;;5053731;27;51253;-59
2022/03/03 06:27:15;;;;;;;;;55.00;44.50;;;;;;;;5053500;27;54207;-59
2022/03/03 06:29:40;;;;;;;;;53.25;41.50;;;;;;;;5056475;27;51193;-59
2022/03/03 06:32:05;;;;;;;;;48.00;41.25;;;;;;;;5052754;27;51256;-59
2022/03/03 06:34:31;;;;;;;;;50.75;42.25;;;;;;;;5057892;27;51124;-59
2022/03/03 06:36:56;;;;;;;;;52.00;40.50;;;;;;;;5052275;27;53527;-59
2022/03/03 06:39:21;;;;;;;;;52.00;41.75;;;;;;;;5051811;27;51224;-59
2022/03/03 06:41:47;;;;;;;;;44.75;39.75;;;;;;;;5053075;27;53381;-60
2022/03/03 06:44:13;;;;;;;;;54.00;43.50;;;;;;;;5050903;27;51340;-59
2022/03/03 06:46:38;;;;;;;;;46.25;40.25;;;;;;;;5057424;27;51450;-59
2022/03/03 06:49:03;;;;;;;;;52.50;42.00;;;;;;;;5055347;27;51455;-59
2022/03/03 06:51:33;;;;;;;;;53.25;43.00;;;;;;;;5049611;27;51450;-59
2022/03/03 06:54:01;;;;;;;;;56.25;44.25;;;;;;;;5050278;27;51567;-59
2022/03/03 06:56:28;;;;;;;;;56.00;46.00;;;;;;;;5053491;27;51519;-59
2022/03/03 06:59:02;;;;;;;;;55.00;43.25;;;;;;;;5053813;27;53476;-59
2022/03/03 07:01:30;;;;;;;;;56.50;47.00;;;;;;;;5053410;27;52219;-59
2022/03/03 07:03:55;;;;;;;;;53.00;42.00;;;;;;;;5048077;27;51296;-59
2022/03/03 07:06:22;;;;;;;;;56.25;43.50;;;;;;;;5052685;27;51243;-58
2022/03/03 07:08:49;;;;;;;;;51.25;43.75;;;;;;;;5053962;27;51131;-59
2022/03/03 07:11:16;;;;;;;;;56.25;45.50;;;;;;;;5049872;27;51265;-59
2022/03/03 07:13:43;;;;;;;;;52.00;41.50;;;;;;;;5053984;27;51133;-59
2022/03/03 07:16:27;;;;;;;;;51.25;42.75;;;;;;;;5049780;27;51417;-59
2022/03/03 07:18:53;;;;;;;;;55.75;46.50;;;;;;;;5052362;27;51282;-59
2022/03/03 07:21:37;;;;;;;;;53.50;43.75;;;;;;;;5050504;27;51258;-59
2022/03/03 07:24:03;;;;;;;;;55.50;46.00;;;;;;;;5052810;27;51238;-59
2022/03/03 07:26:30;;;;;;;;;58.00;48.50;;;;;;;;5051179;27;52730;-61
2022/03/03 07:28:59;;;;;;;;;56.00;46.50;;;;;;;;5052123;27;51174;-60
2022/03/03 07:31:26;;;;;;;;;56.00;47.00;;;;;;;;5052363;27;51175;-60
2022/03/03 07:33:55;;;;;;;;;53.00;45.00;;;;;;;;5054777;27;51239;-60
2022/03/03 07:36:24;;;;;;;;;57.00;44.50;;;;;;;;5057872;27;51544;-60
2022/03/03 07:38:58;;;;;;;;;53.50;44.00;;;;;;;;5056552;27;51175;-60
2022/03/03 07:41:25;;;;;;;;;53.00;44.00;;;;;;;;5052800;27;54295;-61
2022/03/03 07:43:50;;;;;;;;;54.25;44.25;;;;;;;;5055821;27;51201;-60
2022/03/03 07:46:15;;;;;;;;;57.25;46.50;;;;;;;;5054010;27;51241;-61
2022/03/03 07:48:43;;;;;;;;;53.50;45.25;;;;;;;;5054116;27;51407;-60
2022/03/03 07:51:10;;;;;;;;;57.25;47.00;;;;;;;;5056056;27;51853;-60
2022/03/03 07:53:35;;;;;;;;;53.50;44.50;;;;;;;;5056639;27;53583;-61
2022/03/03 07:56:01;;;;;;;;;55.50;47.00;;;;;;;;5055309;27;53480;-59
2022/03/03 07:58:28;;;;;;;;;59.00;48.00;;;;;;;;5055411;27;51228;-59
2022/03/03 08:00:57;;;;;;;;;59.25;48.00;;;;;;;;5055295;27;51235;-61
2022/03/03 08:03:23;;;;;;;;;57.25;46.25;;;;;;;;5053305;27;51285;-60
2022/03/03 08:05:49;;;;;;;;;58.75;46.75;;;;;;;;5058550;27;52524;-62
2022/03/03 08:08:15;;;;;;;;;57.00;45.75;;;;;;;;5055951;27;53480;-62
2022/03/03 08:10:42;;;;;;;;;58.00;46.75;;;;;;;;5058362;27;53227;-62
2022/03/03 08:13:09;;;;;;;;;55.00;45.75;;;;;;;;5057209;27;51392;-65
2022/03/03 08:15:38;;;;;;;;;55.25;46.00;;;;;;;;5049863;27;51347;-62
2022/03/03 08:18:03;;;;;;;;;55.75;46.00;;;;;;;;5054287;27;51447;-63
2022/03/03 08:20:28;;;;;;;;;62.00;46.00;;;;;;;;5050540;27;51201;-61
2022/03/03 08:22:54;;;;;;;;;52.50;44.25;;;;;;;;5054545;27;51266;-62
2022/03/03 08:25:19;;;;;;;;;57.00;45.00;;;;;;;;5052402;27;53690;-62
2022/03/03 08:27:44;;;;;;;;;57.25;46.25;;;;;;;;5054864;27;51314;-60
2022/03/03 08:30:11;;;;;;;;;55.00;44.00;;;;;;;;5056648;27;51189;-62
2022/03/03 08:32:38;;;;;;;;;53.00;44.75;;;;;;;;5053059;27;51313;-58
2022/03/03 08:35:16;;;;;;;;;58.00;47.75;;;;;;;;5052016;27;51537;-59
2022/03/03 08:37:43;;;;;;;;;56.75;46.00;;;;;;;;5054905;27;51443;-60
2022/03/03 08:40:10;;;;;;;;;58.50;45.50;;;;;;;;5052646;27;52136;-60
2022/03/03 08:42:43;;;;;;;;;52.75;43.50;;;;;;;;5054744;27;53525;-59
2022/03/03 08:45:10;;;;;;;;;56.75;46.00;;;;;;;;5054524;27;51425;-60
2022/03/03 08:47:35;;;;;;;;;56.50;43.25;;;;;;;;5056744;27;51223;-60
2022/03/03 08:50:04;;;;;;;;;52.25;42.25;;;;;;;;5053015;27;53148;-61
2022/03/03 08:52:30;;;;;;;;;58.25;48.25;;;;;;;;5053515;27;51473;-61
2022/03/03 08:54:55;;;;;;;;;52.25;44.50;;;;;;;;5053324;27;51225;-61
2022/03/03 08:57:20;;;;;;;;;55.50;45.00;;;;;;;;5052996;27;51381;-59
2022/03/03 08:59:46;;;;;;;;;56.50;47.50;;;;;;;;5052105;27;53565;-61
2022/03/03 09:02:16;;;;;;;;;57.50;46.75;;;;;;;;5051221;27;51176;-60
2022/03/03 09:04:42;;;;;;;;;56.75;46.50;;;;;;;;5053167;27;51141;-61
2022/03/03 09:07:08;;;;;;;;;52.50;44.75;;;;;;;;5051943;27;53284;-60
2022/03/03 09:09:34;;;;;;;;;57.50;46.00;;;;;;;;5059815;27;53206;-61
2022/03/03 09:12:01;;;;;;;;;56.50;46.00;;;;;;;;5057681;27;51243;-60
2022/03/03 09:14:26;;;;;;;;;57.00;46.50;;;;;;;;5056141;27;51304;-60
2022/03/03 09:16:52;;;;;;;;;55.75;46.25;;;;;;;;5055169;27;51402;-62
2022/03/03 09:19:17;;;;;;;;;57.25;46.00;;;;;;;;5057771;27;52116;-62
2022/03/03 09:21:42;;;;;;;;;49.50;42.75;;;;;;;;5048942;27;53509;-62
2022/03/03 09:24:09;;;;;;;;;59.25;48.25;;;;;;;;5051121;27;51269;-61
2022/03/03 09:26:34;;;;;;;;;55.75;45.50;;;;;;;;5051207;27;51237;-60
2022/03/03 09:29:00;;;;;;;;;56.00;46.00;;;;;;;;5085727;27;53730;-61
2022/03/03 09:31:25;;;;;;;;;55.00;46.00;;;;;;;;5051692;27;51306;-62
2022/03/03 09:33:50;;;;;;;;;54.00;45.00;;;;;;;;5052133;27;51511;-62
2022/03/03 09:36:18;;;;;;;;;54.50;45.50;;;;;;;;5074663;27;51186;-61
2022/03/03 09:38:43;;;;;;;;;54.50;44.50;;;;;;;;5055466;27;53087;-64
2022/03/03 09:41:08;;;;;;;;;55.50;46.50;;;;;;;;5053042;27;52203;-65
2022/03/03 09:43:34;;;;;;;;;53.75;45.00;;;;;;;;5056834;27;51229;-63
2022/03/03 09:45:59;;;;;;;;;59.25;47.25;;;;;;;;5055562;27;53437;-64
2022/03/03 09:48:24;;;;;;;;;61.00;48.00;;;;;;;;5052094;27;53232;-64
2022/03/03 09:50:49;;;;;;;;;55.00;46.00;;;;;;;;5056620;27;51179;-64
2022/03/03 09:53:16;;;;;;;;;44.50;38.75;;;;;;;;5050399;27;51227;-65
2022/03/03 09:55:43;;;;;;;;;60.25;48.00;;;;;;;;5049864;27;51221;-65
2022/03/03 09:58:08;;;;;;;;;55.00;43.75;;;;;;;;5049787;27;52538;-64
2022/03/03 10:00:36;;;;;;;;;59.25;46.75;;;;;;;;5053722;27;51144;-64
2022/03/03 10:03:08;;;;;;;;;54.75;44.00;;;;;;;;5032543;27;51251;-65
2022/03/03 10:05:42;;;;;;;;;52.75;44.50;;;;;;;;5056176;27;51408;-65
2022/03/03 10:08:11;;;;;;;;;55.25;44.00;;;;;;;;5053388;27;51187;-65
2022/03/03 10:10:38;;;;;;;;;56.75;47.00;;;;;;;;5053125;27;51461;-65
2022/03/03 10:13:03;;;;;;;;;59.75;48.25;;;;;;;;5053591;27;53566;-65
2022/03/03 10:15:29;;;;;;;;;54.25;44.50;;;;;;;;5051318;27;51540;-66
2022/03/03 10:17:56;;;;;;;;;53.50;43.75;;;;;;;;5052712;27;51302;-65
2022/03/03 10:20:22;;;;;;;;;54.50;44.75;;;;;;;;5046992;27;51234;-65
2022/03/03 10:22:57;;;;;;;;;55.00;45.25;;;;;;;;5050935;27;51102;-65
2022/03/03 10:25:28;;;;;;;;;54.50;44.50;;;;;;;;5054069;27;51480;-66
2022/03/03 10:27:53;;;;;;;;;55.50;45.75;;;;;;;;5056448;27;52128;-66
2022/03/03 10:30:18;;;;;;;;;56.00;46.50;;;;;;;;5057970;27;51400;-65
2022/03/03 10:32:44;;;;;;;;;57.75;47.00;;;;;;;;5052806;27;51306;-65
2022/03/03 10:35:13;;;;;;;;;50.50;43.75;;;;;;;;5053977;27;51160;-66
2022/03/03 10:37:38;;;;;;;;;56.25;46.25;;;;;;;;5052623;27;53260;-65
2022/03/03 10:40:08;;;;;;;;;58.50;46.00;;;;;;;;5053273;27;51280;-65
2022/03/03 10:42:36;;;;;;;;;56.25;46.50;;;;;;;;5052859;27;51352;-65
2022/03/03 10:45:04;;;;;;;;;57.75;46.75;;;;;;;;5049726;27;51315;-65
2022/03/03 10:47:30;;;;;;;;;57.50;45.75;;;;;;;;5051443;27;52662;-66
2022/03/03 10:49:57;;;;;;;;;57.75;47.25;;;;;;;;5049894;27;51285;-66
2022/03/03 10:52:22;;;;;;;;;52.25;43.75;;;;;;;;5052158;27;51623;-66
2022/03/03 10:54:52;;;;;;;;;54.25;44.25;;;;;;;;5056328;27;53165;-67
2022/03/03 10:57:39;;;;;;;;;53.75;45.00;;;;;;;;5053231;27;51616;-65
2022/03/03 11:00:13;;;;;;;;;54.25;42.75;;;;;;;;5055064;27;51687;-65
2022/03/03 11:02:40;;;;;;;;;53.00;43.00;;;;;;;;5055600;27;51319;-66
2022/03/03 11:05:06;;;;;;;;;49.00;40.50;;;;;;;;5056687;27;52879;-65
2022/03/03 11:07:32;;;;;;;;;51.00;42.75;;;;;;;;5051103;27;53437;-66
2022/03/03 11:09:58;;;;;;;;;51.75;41.75;;;;;;;;5058498;27;51359;-65
2022/03/03 11:12:24;;;;;;;;;46.75;39.00;;;;;;;;5053469;27;51434;-65
2022/03/03 11:14:51;;;;;;;;;50.50;39.75;;;;;;;;5056947;27;51623;-66
2022/03/03 11:17:16;;;;;;;;;51.50;41.00;;;;;;;;5059731;27;52267;-66
2022/03/03 11:19:42;;;;;;;;;47.00;40.50;;;;;;;;5054393;27;51734;-65
2022/03/03 11:22:07;;;;;;;;;47.75;39.25;;;;;;;;5056264;27;53472;-66
2022/03/03 11:24:36;;;;;;;;;48.50;41.00;;;;;;;;5056406;27;51472;-65
2022/03/03 11:27:01;;;;;;;;;48.00;39.00;;;;;;;;5052452;27;53506;-67
2022/03/03 11:29:27;;;;;;;;;51.00;41.25;;;;;;;;5055665;27;52460;-66
2022/03/03 11:32:06;;;;;;;;;45.25;38.50;;;;;;;;5057225;27;51320;-64
2022/03/03 11:34:32;;;;;;;;;41.50;36.75;;;;;;;;5054018;27;51129;-65
2022/03/03 11:37:07;;;;;;;;;49.50;41.25;;;;;;;;5052449;27;51384;-64
2022/03/03 11:39:51;;;;;;;;;46.25;38.75;;;;;;;;5055397;27;52243;-66
2022/03/03 11:42:16;;;;;;;;;45.50;39.25;;;;;;;;5050528;27;51158;-66
2022/03/03 11:44:41;;;;;;;;;35.75;33.00;;;;;;;;5053580;27;51697;-66
2022/03/03 11:47:27;;;;;;;;;49.75;40.50;;;;;;;;5050161;27;52060;-65
2022/03/03 11:50:16;;;;;;;;;47.00;38.00;;;;;;;;5052727;27;51261;-66
2022/03/03 11:52:42;;;;;;;;;50.75;42.50;;;;;;;;5058806;27;52623;-65
2022/03/03 11:55:26;;;;;;;;;52.75;42.00;;;;;;;;5058426;27;51230;-65
2022/03/03 11:57:57;;;;;;;;;50.75;41.75;;;;;;;;5055125;27;51456;-64
2022/03/03 12:00:23;;;;;;;;;55.00;43.25;;;;;;;;5052579;27;51381;-65
2022/03/03 12:02:53;;;;;;;;;51.25;43.25;;;;;;;;5052656;27;53205;-66
2022/03/03 12:05:28;;;;;;;;;51.00;42.25;;;;;;;;5054014;27;51209;-66
2022/03/03 12:07:57;;;;;;;;;51.75;43.00;;;;;;;;5064008;27;53749;-66
2022/03/03 12:10:22;;;;;;;;;50.50;40.75;;;;;;;;5053269;27;51196;-65
2022/03/03 12:12:48;;;;;;;;;54.00;43.00;;;;;;;;5056118;27;51496;-66
2022/03/03 12:15:13;;;;;;;;;47.25;39.75;;;;;;;;5058711;27;51494;-65
2022/03/03 12:17:44;;;;;;;;;43.50;36.75;;;;;;;;5056089;27;52526;-65
2022/03/03 12:20:27;;;;;;;;;50.50;40.75;;;;;;;;5057679;27;51122;-65
2022/03/03 12:22:58;;;;;;;;;49.50;42.00;;;;;;;;5053756;27;51265;-65
2022/03/03 12:25:44;;;;;;;;;50.50;41.00;;;;;;;;5057322;27;51227;-66
2022/03/03 12:28:15;;;;;;;;;44.00;39.00;;;;;;;;5046785;27;51183;-65
2022/03/03 12:30:44;;;;;;;;;50.50;41.50;;;;;;;;5054199;27;53306;-66
2022/03/03 12:33:19;;;;;;;;;55.00;42.00;;;;;;;;5053701;27;52736;-66
2022/03/03 12:35:46;;;;;;;;;44.50;38.25;;;;;;;;5053457;27;51184;-65
2022/03/03 12:38:12;;;;;;;;;49.75;41.50;;;;;;;;5086270;27;52090;-66
2022/03/03 12:40:38;;;;;;;;;48.00;38.75;;;;;;;;5051317;27;51188;-66
2022/03/03 12:43:09;;;;;;;;;46.50;37.50;;;;;;;;5052264;27;53715;-66
2022/03/03 12:45:37;;;;;;;;;48.25;40.00;;;;;;;;5056097;27;51573;-65
2022/03/03 12:48:03;;;;;;;;;43.25;37.00;;;;;;;;5055169;27;53802;-65
2022/03/03 12:50:29;;;;;;;;;42.75;35.25;;;;;;;;5032567;27;53213;-66
2022/03/03 12:53:06;;;;;;;;;50.50;39.75;;;;;;;;5054791;27;51098;-66
2022/03/03 12:55:47;;;;;;;;;45.00;38.75;;;;;;;;5056549;27;51220;-66
2022/03/03 12:58:13;;;;;;;;;50.50;39.25;;;;;;;;5054498;27;52978;-65
2022/03/03 13:00:42;;;;;;;;;45.25;38.00;;;;;;;;5055393;27;51203;-65
2022/03/03 13:03:08;;;;;;;;;41.75;37.00;;;;;;;;5056878;27;51709;-66
2022/03/03 13:05:46;;;;;;;;;37.25;34.00;;;;;;;;5055322;27;51267;-66
2022/03/03 13:08:21;;;;;;;;;39.00;33.25;;;;;;;;5050364;27;53341;-65
2022/03/03 13:10:48;;;;;;;;;40.50;35.75;;;;;;;;5056738;27;51217;-65
2022/03/03 13:13:13;;;;;;;;;34.75;32.50;;;;;;;;5050929;27;51183;-66
2022/03/03 13:15:39;;;;;;;;;32.75;31.75;;;;;;;;5051943;27;51322;-65
2022/03/03 13:18:06;;;;;;;;;35.50;32.25;;;;;;;;5057440;27;53278;-65
2022/03/03 13:20:52;;;;;;;;;35.00;32.75;;;;;;;;5055810;27;51288;-65
2022/03/03 13:23:17;;;;;;;;;37.75;33.00;;;;;;;;5054911;27;53029;-65
2022/03/03 13:25:43;;;;;;;;;36.25;32.75;;;;;;;;5055958;27;52930;-65
2022/03/03 13:28:09;;;;;;;;;34.75;32.00;;;;;;;;5057599;27;54082;-67
2022/03/03 13:30:34;;;;;;;;;31.75;29.75;;;;;;;;5052867;27;51061;-66
2022/03/03 13:32:59;;;;;;;;;41.00;34.00;;;;;;;;5055895;27;51372;-66
2022/03/03 13:35:36;;;;;;;;;32.25;31.00;;;;;;;;5051642;27;51354;-66
2022/03/03 13:38:05;;;;;;;;;36.50;33.50;;;;;;;;5057233;27;51918;-65
2022/03/03 13:40:32;;;;;;;;;33.75;29.00;;;;;;;;5052243;27;51201;-65
2022/03/03 13:42:59;;;;;;;;;23.25;22.25;;;;;;;;5051661;27;53477;-66
2022/03/03 13:45:42;;;;;;;;;32.50;29.00;;;;;;;;5058119;27;51239;-66
2022/03/03 13:48:13;;;;;;;;;29.50;27.00;;;;;;;;5050444;27;51856;-67
2022/03/03 13:50:40;;;;;;;;;30.75;29.25;;;;;;;;5058303;27;51934;-66
2022/03/03 13:53:19;;;;;;;;;27.25;26.25;;;;;;;;5054447;27;51200;-65
2022/03/03 13:55:45;;;;;;;;;30.25;28.50;;;;;;;;5054511;27;51255;-66
2022/03/03 13:58:19;;;;;;;;;35.50;32.25;;;;;;;;5057476;27;53829;-66
2022/03/03 14:00:45;;;;;;;;;34.50;31.25;;;;;;;;5055486;27;51190;-65
2022/03/03 14:03:12;;;;;;;;;37.75;34.50;;;;;;;;5053714;27;51531;-65
2022/03/03 14:05:38;;;;;;;;;33.25;31.25;;;;;;;;5054737;27;51378;-67
2022/03/03 14:08:05;;;;;;;;;35.25;32.25;;;;;;;;5052738;27;53210;-65
2022/03/03 14:10:45;;;;;;;;;33.50;30.00;;;;;;;;5051125;27;51239;-66
2022/03/03 14:13:11;;;;;;;;;37.00;33.25;;;;;;;;5057105;27;51234;-66
2022/03/03 14:15:36;;;;;;;;;33.75;32.00;;;;;;;;5053882;27;51479;-66